Time;durP1;ratioP1;P1;durP2;ratioP2;P2;SDS_P1;SDS_P2;PMS_P1;PMS_P2;Temp;Humidity;BMP_temperature;BMP_pressure;BME280_temperature;BME280_humidity;BME280_pressure;Samples;Min_cycle;Max_cycle;Signal;HPM_P1;HPM_P2
2023/02/21 06:34:29;;;;;;;;;19.50;19.50;;;;;17.84;45.42;101717.75;5055273;27;45465;-68
2023/02/21 06:36:55;;;;;;;;;19.75;18.50;;;;;18.49;45.84;101723.13;5040432;27;45445;-69
2023/02/21 06:39:22;;;;;;;;;14.50;14.50;;;;;19.32;45.72;101715.28;5046130;28;45651;-69
2023/02/21 06:41:52;;;;;;;;;19.50;18.00;;;;;20.26;45.95;101719.75;5023530;27;45445;-69
2023/02/21 06:44:18;;;;;;;;;21.50;18.25;;;;;21.08;44.93;101710.56;5046679;28;46185;-69
2023/02/21 06:46:43;;;;;;;;;17.75;17.75;;;;;21.87;44.95;101721.94;5044405;27;45434;-69
2023/02/21 06:49:09;;;;;;;;;16.25;16.25;;;;;22.54;44.29;101714.28;5045340;28;45424;-69
2023/02/21 06:51:36;;;;;;;;;18.25;17.25;;;;;23.10;44.21;101711.06;5037929;28;45841;-69
2023/02/21 06:54:03;;;;;;;;;17.50;17.00;;;;;23.55;43.17;101707.78;5045254;28;46322;-70
2023/02/21 06:56:28;;;;;;;;;18.25;16.50;;;;;23.97;43.11;101704.81;5026297;27;45517;-69
2023/02/21 06:58:54;;;;;;;;;19.50;15.75;;;;;24.31;42.81;101707.84;5045370;28;45481;-69
2023/02/21 07:01:19;;;;;;;;;17.00;17.00;;;;;24.59;42.08;101704.25;5044783;28;45505;-68
2023/02/21 07:03:46;;;;;;;;;17.00;16.50;;;;;24.88;42.43;101707.84;5025120;27;48269;-69
2023/02/21 07:06:12;;;;;;;;;17.50;17.50;;;;;25.09;42.28;101708.38;5047812;28;45612;-70
2023/02/21 07:08:37;;;;;;;;;20.50;20.00;;;;;25.30;41.45;101718.03;5040471;28;45633;-69
2023/02/21 07:11:04;;;;;;;;;16.75;16.75;;;;;25.48;41.51;101709.88;5039912;28;45746;-68
2023/02/21 07:13:30;;;;;;;;;23.50;20.75;;;;;25.65;41.09;101716.31;5034238;28;45624;-68
2023/02/21 07:15:55;;;;;;;;;16.25;14.25;;;;;25.80;40.81;101713.00;5038282;28;45633;-70
2023/02/21 07:18:20;;;;;;;;;16.00;16.00;;;;;25.91;40.98;101707.28;5035681;28;45563;-70
2023/02/21 07:20:46;;;;;;;;;19.25;19.25;;;;;26.08;40.72;101711.97;5038913;28;45574;-70
2023/02/21 07:23:11;;;;;;;;;17.50;17.50;;;;;26.17;40.22;101705.53;5038753;28;46338;-69
2023/02/21 07:25:36;;;;;;;;;16.75;16.75;;;;;26.29;40.21;101701.53;5041441;28;45479;-69
2023/02/21 07:28:03;;;;;;;;;17.75;17.75;;;;;26.39;40.31;101708.72;5047963;28;45639;-69
2023/02/21 07:30:28;;;;;;;;;19.00;18.25;;;;;26.48;39.76;101704.16;5039313;28;45403;-69
2023/02/21 07:32:53;;;;;;;;;19.33;19.33;;;;;26.56;39.82;101704.16;5045239;27;46439;-70
2023/02/21 07:35:19;;;;;;;;;18.67;16.00;;;;;26.60;39.47;101702.00;5041959;28;45604;-69
2023/02/21 07:37:44;;;;;;;;;18.25;17.75;;;;;26.63;39.23;101704.34;5037875;28;45505;-70
2023/02/21 07:40:09;;;;;;;;;16.50;16.50;;;;;26.71;39.42;101707.09;5041916;28;45508;-69
2023/02/21 07:42:35;;;;;;;;;19.75;19.00;;;;;26.76;39.03;101706.63;5043884;28;45709;-68
2023/02/21 07:45:00;;;;;;;;;19.00;19.00;;;;;26.77;39.04;101697.44;5034637;28;45460;-68
2023/02/21 07:47:26;;;;;;;;;19.00;18.25;;;;;26.76;38.61;101702.00;5024362;28;45396;-68
2023/02/21 07:49:52;;;;;;;;;22.00;18.67;;;;;26.71;38.80;101693.50;5021459;27;45579;-69
2023/02/21 07:52:19;;;;;;;;;20.75;20.75;;;;;26.68;38.50;101702.84;5031814;28;47147;-70
2023/02/21 07:54:44;;;;;;;;;20.00;17.50;;;;;26.68;38.47;101696.53;5033229;27;45564;-71
2023/02/21 07:57:10;;;;;;;;;18.33;17.00;;;;;26.69;38.87;101687.38;5028993;28;45496;-71
2023/02/21 07:59:35;;;;;;;;;20.25;17.25;;;;;26.78;38.13;101685.50;5024866;28;46034;-72
2023/02/21 08:02:01;;;;;;;;;24.75;20.75;;;;;26.88;38.37;101685.34;5017566;27;47025;-71
2023/02/21 08:04:26;;;;;;;;;18.33;18.33;;;;;26.96;38.10;101694.41;5017640;28;45797;-72
2023/02/21 08:07:00;;;;;;;;;22.25;20.25;;;;;27.03;38.35;101691.00;5025031;28;45453;-71
2023/02/21 08:09:25;;;;;;;;;19.50;17.25;;;;;27.12;37.94;101687.25;5024546;28;45504;-70
2023/02/21 08:11:51;;;;;;;;;21.00;19.50;;;;;27.18;38.12;101685.75;5021723;27;45625;-71
2023/02/21 08:14:16;;;;;;;;;19.33;18.00;;;;;27.22;38.14;101685.22;5018984;27;45850;-71
2023/02/21 08:16:41;;;;;;;;;23.00;19.33;;;;;27.27;37.52;101682.00;5020898;27;46104;-71
2023/02/21 08:19:08;;;;;;;;;18.67;18.67;;;;;27.33;38.05;101683.16;5035168;27;46625;-70
2023/02/21 08:21:33;;;;;;;;;19.75;19.75;;;;;27.34;37.46;101690.34;5032027;27;46171;-71
2023/02/21 08:23:59;;;;;;;;;20.67;18.33;;;;;27.36;37.78;101680.97;5016759;28;46218;-71
2023/02/21 08:26:24;;;;;;;;;18.33;17.67;;;;;27.43;37.99;101683.81;5031227;28;46370;-71
2023/02/21 08:28:49;;;;;;;;;20.00;18.00;;;;;27.48;36.98;101684.19;5030465;28;45544;-71
2023/02/21 08:31:15;;;;;;;;;19.00;16.00;;;;;27.47;37.24;101676.19;5034610;27;50267;-71
2023/02/21 08:33:40;;;;;;;;;21.67;20.33;;;;;27.48;37.24;101669.69;5030417;27;45602;-70
2023/02/21 08:36:06;;;;;;;;;20.33;19.33;;;;;27.49;36.86;101663.22;5010536;28;45387;-70
2023/02/21 08:38:31;;;;;;;;;20.33;19.33;;;;;27.52;37.64;101662.00;5026316;27;45583;-71
2023/02/21 08:40:56;;;;;;;;;18.67;17.67;;;;;27.54;37.13;101669.00;5029117;27;46243;-69
2023/02/21 08:43:23;;;;;;;;;24.00;21.33;;;;;27.59;36.79;101677.50;5016411;28;45923;-70
2023/02/21 08:45:48;;;;;;;;;22.33;20.67;;;;;27.64;36.65;101671.56;5028942;28;45379;-70
2023/02/21 08:48:13;;;;;;;;;18.00;16.67;;;;;27.65;36.69;101676.00;5030640;27;45730;-69
2023/02/21 08:50:39;;;;;;;;;21.33;18.67;;;;;27.63;37.29;101664.41;5029576;27;47149;-70
2023/02/21 08:53:04;;;;;;;;;18.00;17.33;;;;;27.69;37.20;101674.63;5034466;28;45963;-69
2023/02/21 08:55:29;;;;;;;;;17.00;17.00;;;;;27.72;36.93;101674.25;5029731;28;47065;-71
2023/02/21 08:57:55;;;;;;;;;20.33;18.33;;;;;27.73;36.48;101666.94;5022974;28;45431;-70
2023/02/21 09:00:22;;;;;;;;;16.33;16.33;;;;;27.77;36.70;101676.47;5028020;27;45632;-70
2023/02/21 09:02:49;;;;;;;;;21.33;20.33;;;;;27.75;37.04;101676.66;5026705;28;45391;-70
2023/02/21 09:05:26;;;;;;;;;23.00;19.67;;;;;27.79;36.50;101677.13;5024636;28;45384;-71
2023/02/21 09:07:57;;;;;;;;;20.00;20.00;;;;;27.81;36.53;101671.50;5028321;28;45404;-70
2023/02/21 09:10:23;;;;;;;;;22.00;18.00;;;;;27.85;36.58;101675.59;5031124;28;45555;-70
2023/02/21 09:12:48;;;;;;;;;17.33;17.33;;;;;27.87;36.08;101674.41;5031312;27;45689;-69
2023/02/21 09:15:15;;;;;;;;;19.67;17.67;;;;;27.90;36.16;101670.47;5016518;28;45447;-71
2023/02/21 09:17:41;;;;;;;;;22.50;21.50;;;;;27.93;36.07;101683.75;5016856;27;45558;-71
2023/02/21 09:20:08;;;;;;;;;17.67;17.00;;;;;27.95;36.08;101676.25;5025002;28;45626;-71
2023/02/21 09:22:34;;;;;;;;;23.00;21.33;;;;;27.97;36.48;101668.75;5031409;28;45531;-71
2023/02/21 09:25:00;;;;;;;;;19.00;17.33;;;;;28.02;36.43;101671.78;5026418;28;45504;-69
2023/02/21 09:27:35;;;;;;;;;20.67;20.00;;;;;28.02;36.31;101674.53;5030899;28;45614;-68
2023/02/21 09:30:06;;;;;;;;;19.00;19.00;;;;;28.08;35.85;101661.19;5032290;28;46234;-69
2023/02/21 09:32:32;;;;;;;;;18.00;18.00;;;;;28.07;35.89;101663.06;5020010;28;45444;-69
2023/02/21 09:34:57;;;;;;;;;20.00;18.33;;;;;28.05;35.68;101662.41;5029768;27;45562;-69
2023/02/21 09:37:23;;;;;;;;;20.33;15.67;;;;;28.04;36.20;101655.25;5032480;27;45495;-70
2023/02/21 09:39:49;;;;;;;;;22.67;20.67;;;;;28.02;35.48;101651.81;5031557;28;45463;-70
2023/02/21 09:42:18;;;;;;;;;17.67;17.67;;;;;28.04;35.67;101655.25;5029576;27;45548;-70
2023/02/21 09:44:45;;;;;;;;;20.00;16.67;;;;;28.06;36.20;101655.03;5017966;27;45378;-70
2023/02/21 09:47:22;;;;;;;;;19.67;19.67;;;;;28.05;35.88;101651.47;5027790;27;45482;-71
2023/02/21 09:49:53;;;;;;;;;15.00;12.33;;;;;28.01;35.36;101641.94;5030169;28;45516;-71
2023/02/21 09:52:30;;;;;;;;;18.33;18.33;;;;;28.06;35.89;101646.84;5018944;28;45424;-70
2023/02/21 09:54:59;;;;;;;;;18.67;18.33;;;;;28.06;35.64;101649.59;5029649;27;45813;-71
2023/02/21 09:57:24;;;;;;;;;17.33;17.33;;;;;28.10;35.88;101650.94;5019663;28;45514;-71
2023/02/21 09:59:49;;;;;;;;;20.00;18.50;;;;;28.11;36.00;101655.34;5028442;27;46133;-71
2023/02/21 10:02:52;;;;;;;;;19.00;18.67;;;;;28.12;35.14;101652.47;5028028;28;45416;-71
2023/02/21 10:05:37;;;;;;;;;18.00;17.00;;;;;28.12;35.02;101654.34;5022728;28;45370;-71
2023/02/21 10:08:28;;;;;;;;;15.67;15.67;;;;;28.15;35.13;101654.84;5029497;28;45569;-70
2023/02/21 10:11:00;;;;;;;;;19.00;18.00;;;;;28.17;35.66;101656.53;5026966;27;46559;-72
2023/02/21 10:13:39;;;;;;;;;18.33;16.67;;;;;28.13;35.37;101642.41;5029736;28;45553;-73
2023/02/21 10:16:34;;;;;;;;;16.00;16.00;;;;;28.14;35.72;101647.69;5026780;28;45394;-72
2023/02/21 10:19:13;;;;;;;;;18.67;17.00;;;;;28.16;35.07;101650.25;5025048;28;45524;-71
2023/02/21 10:21:45;;;;;;;;;17.33;17.33;;;;;28.12;35.43;101646.16;5028383;28;46572;-70
2023/02/21 10:24:13;;;;;;;;;17.33;15.00;;;;;28.16;35.10;101647.53;5028336;28;45452;-69
2023/02/21 10:26:43;;;;;;;;;16.67;16.67;;;;;28.19;35.06;101638.13;5011850;27;45448;-70
2023/02/21 10:29:24;;;;;;;;;16.33;14.67;;;;;28.23;34.89;101642.16;5028330;27;45390;-70
2023/02/21 10:31:54;;;;;;;;;17.00;16.00;;;;;28.25;35.30;101629.25;5011110;27;45706;-70
2023/02/21 10:34:25;;;;;;;;;16.00;16.00;;;;;28.30;35.47;101637.75;5011321;27;45376;-70
2023/02/21 10:36:51;;;;;;;;;19.00;18.00;;;;;28.30;34.84;101628.69;5022650;28;45458;-70
2023/02/21 10:39:23;;;;;;;;;16.00;16.00;;;;;28.35;35.24;101639.91;5026776;28;45428;-72
2023/02/21 10:41:50;;;;;;;;;20.00;18.00;;;;;28.35;35.05;101632.59;5023406;28;46332;-69
2023/02/21 10:44:25;;;;;;;;;17.00;16.00;;;;;28.38;34.67;101634.97;5062360;27;45591;-70
2023/02/21 10:47:00;;;;;;;;;23.67;19.67;;;;;28.38;34.70;101634.97;5023215;28;45855;-70
2023/02/21 10:49:44;;;;;;;;;18.00;16.33;;;;;28.38;35.20;101637.69;5024110;28;45453;-72
2023/02/21 10:52:17;;;;;;;;;17.33;15.00;;;;;28.43;34.94;101623.50;5027342;28;45454;-70
2023/02/21 10:55:03;;;;;;;;;20.33;18.00;;;;;28.48;35.06;101629.25;5027300;28;46805;-72
2023/02/21 10:57:32;;;;;;;;;17.67;14.67;;;;;28.50;34.93;101616.28;5027240;28;45523;-72
2023/02/21 10:59:58;;;;;;;;;18.33;17.67;;;;;28.57;34.88;101615.56;5028887;28;45911;-72
2023/02/21 11:02:40;;;;;;;;;15.00;15.00;;;;;28.58;34.78;101617.25;5025714;27;45416;-73
2023/02/21 11:05:16;;;;;;;;;18.67;18.33;;;;;28.58;34.70;101614.53;5024881;28;45531;-72
2023/02/21 11:08:12;;;;;;;;;16.67;16.67;;;;;28.58;34.76;101617.25;5014569;27;45589;-72
2023/02/21 11:10:53;;;;;;;;;17.00;17.00;;;;;28.54;34.89;101609.41;5029963;27;45833;-71
2023/02/21 11:13:21;;;;;;;;;17.33;16.33;;;;;28.58;34.76;101606.31;5039158;28;45630;-72
2023/02/21 11:15:47;;;;;;;;;14.33;12.33;;;;;28.56;34.62;101595.59;5009143;28;45419;-71
2023/02/21 11:18:21;;;;;;;;;14.00;14.00;;;;;28.58;33.96;101603.59;5028510;28;45670;-71
2023/02/21 11:20:47;;;;;;;;;12.67;12.67;;;;;28.57;34.07;101596.44;5030154;28;45745;-72
2023/02/21 11:23:26;;;;;;;;;17.33;15.33;;;;;28.54;34.39;101593.03;5024732;28;46320;-72
2023/02/21 11:26:04;;;;;;;;;18.00;16.67;;;;;28.48;34.02;101582.00;5027509;28;45410;-72
2023/02/21 11:28:30;;;;;;;;;20.67;16.67;;;;;28.48;34.21;101585.56;5032648;28;45496;-71
2023/02/21 11:31:27;;;;;;;;;15.33;14.00;;;;;28.47;33.93;101580.28;5031176;27;45699;-71
2023/02/21 11:34:02;;;;;;;;;15.33;14.67;;;;;28.40;33.89;101569.25;5027723;28;46652;-72
2023/02/21 11:36:32;;;;;;;;;18.00;16.00;;;;;28.40;34.21;101572.84;5030613;28;45316;-71
2023/02/21 11:39:17;;;;;;;;;15.33;14.33;;;;;28.39;34.32;101567.56;5024664;28;45705;-75
2023/02/21 11:41:50;;;;;;;;;18.00;16.67;;;;;28.36;34.13;101560.56;5066147;27;45613;-73
2023/02/21 11:44:36;;;;;;;;;13.00;11.33;;;;;28.36;33.65;101557.00;5031525;28;45512;-74
2023/02/21 11:47:15;;;;;;;;;13.33;13.33;;;;;28.35;34.34;101549.84;5036572;27;45552;-74
2023/02/21 11:50:03;;;;;;;;;15.67;14.00;;;;;28.34;33.80;101543.53;5024752;28;45558;-71
2023/02/21 11:52:38;;;;;;;;;18.33;14.00;;;;;28.34;33.73;101538.09;5030668;27;45364;-70
2023/02/21 11:55:12;;;;;;;;;14.67;14.67;;;;;28.35;34.47;101531.59;5030078;27;45600;-71
2023/02/21 11:57:47;;;;;;;;;14.33;14.33;;;;;28.38;33.71;101527.63;5031369;28;45425;-71
2023/02/21 12:00:15;;;;;;;;;14.00;14.00;;;;;28.45;33.86;101525.03;5030395;27;46067;-72
2023/02/21 12:02:43;;;;;;;;;14.67;13.67;;;;;28.49;34.14;101521.72;5025848;27;45444;-72
2023/02/21 12:05:52;;;;;;;;;15.67;15.00;;;;;28.55;34.49;101514.69;5013658;28;47360;-71
2023/02/21 12:08:42;;;;;;;;;13.00;13.00;;;;;28.64;33.81;101518.19;5009008;28;45591;-70
2023/02/21 12:11:24;;;;;;;;;14.00;14.00;;;;;28.71;33.76;101510.13;5042336;27;45512;-69
2023/02/21 12:14:35;;;;;;;;;13.00;13.00;;;;;28.77;33.75;101502.03;5037431;28;45543;-70
2023/02/21 12:17:25;;;;;;;;;15.67;14.00;;;;;28.82;34.19;101487.81;5024265;28;46799;-70
2023/02/21 12:20:06;;;;;;;;;12.00;12.00;;;;;28.86;34.27;101483.69;5015021;28;46066;-70
2023/02/21 12:22:40;;;;;;;;;11.67;11.33;;;;;28.89;33.84;101477.03;5015889;28;45564;-71
2023/02/21 12:25:23;;;;;;;;;11.33;10.33;;;;;28.92;33.41;101476.63;5020744;28;46288;-70
2023/02/21 12:28:08;;;;;;;;;13.67;12.33;;;;;28.97;34.30;101465.16;5031009;28;45536;-70
2023/02/21 12:30:50;;;;;;;;;12.67;11.00;;;;;28.98;33.70;101459.47;5031854;28;45941;-71
2023/02/21 12:33:28;;;;;;;;;14.33;12.00;;;;;29.00;33.89;101454.69;5010588;28;45439;-72
2023/02/21 12:36:11;;;;;;;;;16.33;14.33;;;;;29.01;33.46;101450.09;5019496;28;46107;-72
2023/02/21 12:39:13;;;;;;;;;10.00;10.00;;;;;29.01;33.35;101440.00;5014159;28;47272;-71
2023/02/21 12:41:41;;;;;;;;;10.33;10.33;;;;;29.03;34.03;101435.19;5031720;28;45390;-71
2023/02/21 12:44:18;;;;;;;;;11.67;11.67;;;;;29.04;33.47;101422.38;5027335;28;45810;-73
2023/02/21 12:47:09;;;;;;;;;14.00;13.00;;;;;29.05;34.02;101415.84;5022856;28;45559;-72
2023/02/21 12:49:57;;;;;;;;;8.33;8.33;;;;;29.06;33.22;101415.69;5025788;28;46806;-71
2023/02/21 12:52:32;;;;;;;;;11.00;11.00;;;;;29.10;33.74;101409.84;5026705;28;45606;-70
2023/02/21 12:55:03;;;;;;;;;10.33;10.33;;;;;29.11;33.78;101411.53;5028844;28;45645;-70
2023/02/21 12:57:48;;;;;;;;;11.00;11.00;;;;;29.14;33.32;101406.53;5021532;28;45558;-70
2023/02/21 13:00:21;;;;;;;;;12.33;11.67;;;;;29.18;33.74;101407.00;5030211;27;45660;-70
2023/02/21 13:03:17;;;;;;;;;12.67;12.33;;;;;29.22;33.70;101396.53;5044750;28;45534;-70
2023/02/21 13:06:16;;;;;;;;;9.00;8.67;;;;;29.25;33.87;101387.94;5026825;27;45539;-71
2023/02/21 13:08:51;;;;;;;;;13.67;11.67;;;;;29.20;33.64;101374.84;5010020;28;45626;-72
2023/02/21 13:11:34;;;;;;;;;10.33;10.33;;;;;29.31;33.75;101387.19;5041014;27;46409;-72
2023/02/21 13:14:00;;;;;;;;;10.00;10.00;;;;;29.35;33.69;101377.56;5019799;28;45724;-72
2023/02/21 13:16:26;;;;;;;;;10.33;10.00;;;;;29.38;33.20;101379.88;5019337;28;45469;-71
2023/02/21 13:19:01;;;;;;;;;10.33;10.00;;;;;29.39;33.30;101373.38;5026455;28;45624;-69
2023/02/21 13:21:41;;;;;;;;;13.33;12.00;;;;;29.42;33.14;101375.72;5017488;27;45583;-70
2023/02/21 13:24:29;;;;;;;;;11.00;11.00;;;;;29.38;33.32;101373.59;5025101;27;45610;-71
2023/02/21 13:27:10;;;;;;;;;11.67;9.67;;;;;29.27;32.79;101364.00;5033777;27;45650;-70
2023/02/21 13:29:38;;;;;;;;;12.67;12.67;;;;;29.15;32.85;101360.91;5018030;27;45657;-70
2023/02/21 13:32:15;;;;;;;;;11.00;11.00;;;;;29.05;32.86;101356.59;5041311;27;45556;-71
2023/02/21 13:34:44;;;;;;;;;12.00;12.00;;;;;28.97;32.84;101353.13;5038669;27;45725;-70
2023/02/21 13:37:23;;;;;;;;;11.33;11.00;;;;;28.83;32.25;101331.06;5029616;27;45458;-71
2023/02/21 13:40:00;;;;;;;;;9.67;9.67;;;;;28.76;33.17;101331.00;5021822;28;45611;-70
2023/02/21 13:42:28;;;;;;;;;12.33;10.67;;;;;28.77;32.75;101324.47;5036437;27;45508;-70
2023/02/21 13:45:15;;;;;;;;;12.33;9.00;;;;;28.78;32.53;101309.78;5021215;27;45598;-70
2023/02/21 13:47:56;;;;;;;;;10.00;10.00;;;;;28.84;32.66;101310.06;5025198;27;45529;-72
2023/02/21 13:50:36;;;;;;;;;14.67;12.67;;;;;28.84;32.50;101304.59;5020910;28;45756;-71
2023/02/21 13:53:07;;;;;;;;;12.33;9.67;;;;;28.78;32.79;101301.59;5028913;28;46476;-72
2023/02/21 13:55:33;;;;;;;;;10.67;9.33;;;;;28.72;32.55;101301.53;5028741;28;45401;-72
2023/02/21 13:57:59;;;;;;;;;8.67;8.67;;;;;28.69;32.59;101293.72;5024612;27;45843;-72
2023/02/21 14:00:24;;;;;;;;;12.00;11.00;;;;;28.65;32.45;101287.78;5017823;27;45676;-70
2023/02/21 14:03:16;;;;;;;;;10.67;10.67;;;;;28.64;32.52;101284.19;5023789;27;45958;-72
2023/02/21 14:05:54;;;;;;;;;9.67;9.33;;;;;28.68;32.84;101287.38;5024568;28;45445;-72
2023/02/21 14:08:28;;;;;;;;;11.00;7.50;;;;;28.73;32.53;101284.09;5027909;28;45576;-73
2023/02/21 14:10:55;;;;;;;;;12.67;9.67;;;;;28.78;32.88;101285.19;5010879;27;45711;-72
2023/02/21 14:13:32;;;;;;;;;10.33;10.33;;;;;28.79;32.36;101277.88;5010964;28;46601;-73
2023/02/21 14:16:08;;;;;;;;;9.67;9.00;;;;;28.81;32.11;101273.03;5024198;27;45504;-71
2023/02/21 14:18:53;;;;;;;;;11.00;10.00;;;;;28.79;32.30;101273.25;5025566;27;45462;-72
2023/02/21 14:21:39;;;;;;;;;10.00;10.00;;;;;28.80;31.90;101268.63;5028026;27;45427;-71
2023/02/21 14:24:15;;;;;;;;;11.00;8.00;;;;;28.82;32.02;101260.25;5029010;27;45590;-72
2023/02/21 14:27:04;;;;;;;;;7.67;7.67;;;;;28.84;32.23;101256.28;5025403;27;45505;-72
2023/02/21 14:29:36;;;;;;;;;8.00;8.00;;;;;28.86;32.56;101251.47;5010782;28;45408;-71
2023/02/21 14:32:02;;;;;;;;;9.00;8.00;;;;;28.87;32.61;101238.66;5030414;28;45623;-72
2023/02/21 14:34:36;;;;;;;;;8.33;8.00;;;;;28.87;32.33;101250.44;5032876;27;47072;-72
2023/02/21 14:37:20;;;;;;;;;9.33;8.00;;;;;28.85;32.48;101246.22;5010873;27;45603;-72
2023/02/21 14:40:09;;;;;;;;;10.00;8.00;;;;;28.85;31.83;101235.28;5012437;28;45612;-71
2023/02/21 14:43:05;;;;;;;;;7.33;6.33;;;;;28.84;31.95;101228.97;4943439;28;45655;-72
2023/02/21 14:45:51;;;;;;;;;13.00;10.33;;;;;28.80;32.44;101233.97;4946269;28;45607;-72
2023/02/21 14:48:30;;;;;;;;;11.00;9.00;;;;;28.79;32.10;101235.00;4943374;28;45407;-70
2023/02/21 14:51:41;;;;;;;;;7.00;7.00;;;;;28.77;32.15;101233.53;4902861;28;45634;-69
2023/02/21 14:54:39;;;;;;;;;9.00;8.00;;;;;28.72;32.40;101228.63;4896953;28;45459;-71
2023/02/21 14:57:22;;;;;;;;;8.33;7.67;;;;;28.70;31.87;101229.84;4894846;28;46629;-71
2023/02/21 14:59:50;;;;;;;;;7.33;7.33;;;;;28.62;31.71;101226.22;4932551;28;45587;-69
2023/02/21 15:02:40;;;;;;;;;8.67;8.00;;;;;28.52;31.80;101217.44;4910514;28;45488;-71
2023/02/21 15:05:18;;;;;;;;;8.00;8.00;;;;;28.41;31.98;101218.81;4923590;28;45457;-72
2023/02/21 15:07:46;;;;;;;;;7.33;7.33;;;;;28.31;31.89;101218.25;4923571;28;45591;-72
2023/02/21 15:10:14;;;;;;;;;8.67;7.67;;;;;28.21;31.90;101218.50;4893617;28;45636;-72
2023/02/21 15:12:56;;;;;;;;;8.00;7.67;;;;;28.10;32.12;101207.03;4906764;28;45546;-72
2023/02/21 15:15:23;;;;;;;;;8.67;7.33;;;;;28.04;32.30;101210.50;4929392;28;45386;-72
2023/02/21 15:18:11;;;;;;;;;8.33;8.33;;;;;27.93;31.52;101214.56;4948747;28;45403;-72
2023/02/21 15:20:38;;;;;;;;;11.00;9.33;;;;;27.88;31.53;101211.53;4954425;28;45588;-72
2023/02/21 15:23:18;;;;;;;;;10.00;8.00;;;;;27.82;31.75;101212.25;4972553;28;45501;-71
2023/02/21 15:25:51;;;;;;;;;9.33;8.00;;;;;27.74;31.78;101203.16;5002250;28;45807;-73
2023/02/21 15:28:25;;;;;;;;;6.00;6.00;;;;;27.66;31.72;101192.31;5018416;28;45794;-73
2023/02/21 15:31:01;;;;;;;;;7.00;7.00;;;;;27.64;31.71;101210.75;5022403;28;46059;-73
2023/02/21 15:33:31;;;;;;;;;7.33;7.33;;;;;27.62;31.50;101204.63;5030394;28;45395;-73
2023/02/21 15:36:04;;;;;;;;;9.67;9.67;;;;;27.56;31.42;101199.88;5030549;27;45594;-72
2023/02/21 15:38:29;;;;;;;;;5.33;5.33;;;;;27.56;32.13;101210.78;5030856;28;45892;-72
2023/02/21 15:41:04;;;;;;;;;8.00;7.00;;;;;27.53;31.75;101201.09;5030003;28;45419;-72
2023/02/21 15:43:41;;;;;;;;;6.00;6.00;;;;;27.46;32.13;101195.53;5034807;28;45507;-73
2023/02/21 15:46:12;;;;;;;;;5.67;5.00;;;;;27.47;32.03;101199.94;5011616;28;45598;-72
2023/02/21 15:48:37;;;;;;;;;7.00;6.67;;;;;27.46;31.98;101198.25;4998807;28;47180;-73
2023/02/21 15:51:07;;;;;;;;;7.67;6.00;;;;;27.47;32.19;101205.41;5029855;27;45532;-72
2023/02/21 15:53:33;;;;;;;;;8.00;6.33;;;;;27.45;31.78;101203.91;5031351;28;45503;-72
2023/02/21 15:56:21;;;;;;;;;6.33;6.33;;;;;27.46;32.32;101201.00;5023271;28;45523;-73
2023/02/21 15:59:12;;;;;;;;;7.33;6.00;;;;;27.46;32.00;101200.16;5022219;28;45666;-73
2023/02/21 16:01:39;;;;;;;;;8.33;7.00;;;;;27.43;32.19;101193.16;5020988;27;45668;-73
2023/02/21 16:04:20;;;;;;;;;10.33;7.67;;;;;27.46;31.66;101198.25;5028149;27;45406;-74
2023/02/21 16:06:49;;;;;;;;;9.00;8.00;;;;;27.50;31.85;101201.47;5022886;28;45661;-73
2023/02/21 16:09:28;;;;;;;;;8.00;7.33;;;;;27.58;32.12;101200.53;5019367;28;45999;-74
2023/02/21 16:12:05;;;;;;;;;5.67;5.67;;;;;27.69;32.15;101189.22;5029938;28;45552;-74
2023/02/21 16:14:39;;;;;;;;;6.00;6.00;;;;;27.81;32.38;101186.03;5030236;28;45432;-74
2023/02/21 16:17:15;;;;;;;;;8.00;8.00;;;;;27.91;32.22;101185.75;5021161;28;45970;-74
2023/02/21 16:19:44;;;;;;;;;6.67;5.33;;;;;27.99;32.74;101183.78;5023658;28;45539;-73
2023/02/21 16:22:15;;;;;;;;;6.67;6.67;;;;;28.07;32.96;101182.84;5028296;27;45563;-72
2023/02/21 16:24:40;;;;;;;;;8.33;6.33;;;;;28.15;32.27;101176.44;5025824;28;46015;-71
2023/02/21 16:27:12;;;;;;;;;7.33;6.33;;;;;28.22;32.23;101182.84;5026809;27;45546;-69
2023/02/21 16:29:38;;;;;;;;;6.33;6.33;;;;;28.25;32.36;101178.91;5020760;28;46557;-72
2023/02/21 16:32:03;;;;;;;;;9.00;5.67;;;;;28.33;32.88;101184.28;5030550;28;45568;-71
2023/02/21 16:34:31;;;;;;;;;1.00;0.00;;;;;28.36;32.72;101180.31;5018800;28;45591;-69
2023/02/21 16:37:06;;;;;;;;;7.00;5.33;;;;;28.40;32.70;101182.47;5031187;27;45538;-70
2023/02/21 16:39:32;;;;;;;;;6.67;6.67;;;;;28.42;33.14;101182.28;5026524;28;45587;-71
2023/02/21 16:41:57;;;;;;;;;6.00;6.00;;;;;28.45;32.57;101186.50;5028094;28;45470;-71
2023/02/21 16:44:23;;;;;;;;;6.67;6.67;;;;;28.45;32.75;101187.34;5033581;27;46122;-71
2023/02/21 16:46:50;;;;;;;;;9.33;8.00;;;;;28.49;32.51;101187.81;5005443;28;47171;-73
2023/02/21 16:49:16;;;;;;;;;9.67;8.33;;;;;28.46;32.46;101185.47;5004984;28;45638;-73
2023/02/21 16:51:42;;;;;;;;;12.00;10.67;;;;;28.38;31.93;101189.16;5005302;27;45808;-73
2023/02/21 16:54:09;;;;;;;;;13.67;13.33;;;;;28.27;32.19;101187.75;5005680;27;45466;-73
2023/02/21 16:56:38;;;;;;;;;16.00;14.00;;;;;28.15;32.33;101190.94;5026403;28;45686;-74
2023/02/21 16:59:08;;;;;;;;;16.00;10.33;;;;;28.02;31.58;101185.28;5025721;28;46380;-73
2023/02/21 17:01:35;;;;;;;;;15.67;15.67;;;;;27.88;32.10;101176.91;5022575;28;45501;-72
2023/02/21 17:04:03;;;;;;;;;19.00;17.67;;;;;27.79;31.52;101186.22;5031237;28;45394;-74
2023/02/21 17:06:28;;;;;;;;;16.67;16.33;;;;;27.72;31.58;101186.09;5029094;28;45421;-70
2023/02/21 17:08:55;;;;;;;;;22.00;18.00;;;;;27.67;32.02;101185.00;5025852;27;46018;-71
2023/02/21 17:11:21;;;;;;;;;17.00;15.33;;;;;27.71;31.77;101191.78;5029038;28;45552;-72
2023/02/21 17:13:46;;;;;;;;;16.00;14.33;;;;;27.73;31.49;101185.09;5025354;27;45705;-71
2023/02/21 17:16:12;;;;;;;;;15.33;15.33;;;;;27.79;31.42;101188.13;5021142;28;45805;-72
2023/02/21 17:18:37;;;;;;;;;10.67;9.67;;;;;27.86;31.47;101180.84;5024563;28;46106;-72
2023/02/21 17:21:03;;;;;;;;;18.00;13.33;;;;;27.92;31.59;101176.53;5030232;27;45794;-72
2023/02/21 17:23:28;;;;;;;;;17.67;17.33;;;;;27.99;32.22;101183.78;5021684;28;45544;-72
2023/02/21 17:25:53;;;;;;;;;17.00;16.67;;;;;28.04;31.46;101185.09;5022390;28;45515;-72
2023/02/21 17:28:19;;;;;;;;;13.33;12.67;;;;;28.07;31.83;101169.19;5027293;28;45671;-71
2023/02/21 17:30:44;;;;;;;;;19.00;16.33;;;;;28.12;31.65;101180.38;5025172;28;46095;-72
2023/02/21 17:33:10;;;;;;;;;20.33;18.67;;;;;28.15;31.39;101177.28;5012146;28;45492;-71
2023/02/21 17:35:35;;;;;;;;;17.33;15.33;;;;;28.19;32.07;101174.19;5026192;28;45491;-72
2023/02/21 17:38:01;;;;;;;;;14.00;12.67;;;;;28.22;31.92;101169.19;5029109;28;45611;-72
2023/02/21 17:40:27;;;;;;;;;14.33;14.33;;;;;28.24;31.48;101166.28;5028748;28;45504;-71
2023/02/21 17:42:53;;;;;;;;;19.67;17.33;;;;;28.25;31.78;101168.81;5010385;28;45509;-71
2023/02/21 17:45:20;;;;;;;;;16.67;16.33;;;;;28.25;31.41;101170.72;5026839;28;45535;-71
2023/02/21 17:47:46;;;;;;;;;15.00;12.33;;;;;28.23;32.04;101162.69;5030665;28;46183;-71
2023/02/21 17:50:12;;;;;;;;;18.33;17.00;;;;;28.26;31.43;101162.34;5029432;28;45451;-71
2023/02/21 17:52:38;;;;;;;;;13.33;13.33;;;;;28.22;31.49;101152.81;5030195;28;45549;-71
2023/02/21 17:55:06;;;;;;;;;20.00;16.00;;;;;28.27;31.21;101160.44;5026652;28;45512;-71
2023/02/21 17:57:36;;;;;;;;;13.33;13.00;;;;;28.33;31.90;101167.03;5028339;28;48244;-71
2023/02/21 18:00:07;;;;;;;;;24.67;18.00;;;;;28.31;32.17;101163.66;5027754;27;45423;-71
2023/02/21 18:02:32;;;;;;;;;14.00;12.00;;;;;28.30;32.06;101164.69;5026527;28;45426;-72
2023/02/21 18:04:59;;;;;;;;;13.33;10.00;;;;;28.29;31.76;101161.13;5014107;27;45793;-71
2023/02/21 18:07:27;;;;;;;;;15.33;12.00;;;;;28.33;31.56;101170.63;5030232;28;45551;-71
2023/02/21 18:09:52;;;;;;;;;12.00;12.00;;;;;28.36;31.55;101175.69;5022861;28;46099;-71